Maldives Meteorological Service

SYNOP

Station Code SYNOP
43555
AAXX 22004 43555 11465 72006 10285 20252 30081 40083 69902 70282 82232 333 59001 79999 82818 87077=
43533
AAXX 22004 43533 12465 42003 10280 20257 30079 40081 60002 82202 333 58001 70000 82818 84077=
43577
AAXX 22004 43577 11462 72005 10267 20247 30087 40089 60072 70282 82238 333 59001 70007 82818 87276=
43588
AAXX 22004 43588 12462 72503 10276 20252 30088 40089 60002 82238 333 58003 70001 82818 87276=
43599
AAXX 22004 43599 12460 72708 10282 20246 30087 40089 60002 82238 333 59002 79999 82818 87276=
Last Updated : 2018-04-22 05:00:15